createdAt,value
2017-06-18T00:00:08.113Z,1018.57
2017-06-18T00:01:09.393Z,1018.58
2017-06-18T00:02:10.624Z,1018.55
2017-06-18T00:03:11.859Z,1018.56
2017-06-18T00:04:13.108Z,1018.52
2017-06-18T00:05:14.379Z,1018.52
2017-06-18T00:06:15.635Z,1018.55
2017-06-18T00:07:16.987Z,1018.54
2017-06-18T00:08:18.250Z,1018.53
2017-06-18T00:09:19.494Z,1018.53
2017-06-18T00:10:20.744Z,1018.51
2017-06-18T00:11:21.992Z,1018.5
2017-06-18T00:12:23.248Z,1018.51
2017-06-18T00:13:24.491Z,1018.5
2017-06-18T00:14:25.734Z,1018.48
2017-06-18T00:15:26.979Z,1018.49
2017-06-18T00:16:28.278Z,1018.45
2017-06-18T00:17:29.567Z,1018.45
2017-06-18T00:18:30.788Z,1018.45
2017-06-18T00:19:32.031Z,1018.43
2017-06-18T00:20:33.284Z,1018.45
2017-06-18T00:21:34.527Z,1018.43
2017-06-18T00:22:35.761Z,1018.42
2017-06-18T00:23:37.001Z,1018.43
2017-06-18T00:24:38.326Z,1018.39
2017-06-18T00:25:39.575Z,1018.4
2017-06-18T00:26:40.845Z,1018.45
2017-06-18T00:27:42.091Z,1018.46
2017-06-18T00:28:43.353Z,1018.44
2017-06-18T00:29:44.574Z,1018.44
2017-06-18T00:30:45.866Z,1018.47
2017-06-18T00:31:47.167Z,1018.45
2017-06-18T00:32:48.433Z,1018.45
2017-06-18T00:33:49.664Z,1018.45
2017-06-18T00:34:50.901Z,1018.44
2017-06-18T00:35:52.151Z,1018.42
2017-06-18T00:36:53.471Z,1018.41
2017-06-18T00:37:54.722Z,1018.43
2017-06-18T00:38:55.960Z,1018.44
2017-06-18T00:39:57.223Z,1018.41
2017-06-18T00:40:58.465Z,1018.41
2017-06-18T00:41:59.707Z,1018.42
2017-06-18T00:43:00.953Z,1018.37
2017-06-18T00:44:02.223Z,1018.41
2017-06-18T00:45:03.543Z,1018.39
2017-06-18T00:46:04.838Z,1018.39
2017-06-18T00:47:06.059Z,1018.37
2017-06-18T00:48:07.308Z,1018.37
2017-06-18T00:49:08.645Z,1018.37
2017-06-18T00:50:09.910Z,1018.38
2017-06-18T00:51:11.166Z,1018.36
2017-06-18T00:52:12.428Z,1018.34
2017-06-18T00:53:13.718Z,1018.34
2017-06-18T00:54:14.962Z,1018.34
2017-06-18T00:55:16.201Z,1018.31
2017-06-18T00:56:17.471Z,1018.34
2017-06-18T00:57:18.746Z,1018.33
2017-06-18T00:58:19.953Z,1018.31
2017-06-18T00:59:21.209Z,1018.32
2017-06-18T01:00:22.450Z,1018.31
2017-06-18T01:01:23.718Z,1018.35
2017-06-18T01:02:24.934Z,1018.3
2017-06-18T01:03:26.174Z,1018.29
2017-06-18T01:04:27.462Z,1018.28
2017-06-18T01:05:28.722Z,1018.3
2017-06-18T01:06:29.963Z,1018.27
2017-06-18T01:07:31.221Z,1018.27
2017-06-18T01:08:32.452Z,1018.27
2017-06-18T01:09:33.805Z,1018.26
2017-06-18T01:10:35.117Z,1018.28
2017-06-18T01:11:36.364Z,1018.28
2017-06-18T01:12:37.629Z,1018.25
2017-06-18T01:13:38.858Z,1018.26
2017-06-18T01:14:40.193Z,1018.23
2017-06-18T01:15:41.447Z,1018.24
2017-06-18T01:16:42.727Z,1018.23
2017-06-18T01:17:43.963Z,1018.24
2017-06-18T01:18:45.257Z,1018.24
2017-06-18T01:19:46.484Z,1018.21
2017-06-18T01:20:47.731Z,1018.2
2017-06-18T01:21:48.978Z,1018.22
2017-06-18T01:22:50.216Z,1018.22
2017-06-18T01:23:51.476Z,1018.17
2017-06-18T01:24:52.735Z,1018.2
2017-06-18T01:25:53.969Z,1018.24
2017-06-18T01:26:55.212Z,1018.21
2017-06-18T01:27:56.466Z,1018.22
2017-06-18T01:28:57.739Z,1018.24
2017-06-18T01:29:58.995Z,1018.24
2017-06-18T01:31:00.220Z,1018.27
2017-06-18T01:32:01.466Z,1018.26
2017-06-18T01:33:02.733Z,1018.28
2017-06-18T01:34:03.956Z,1018.27
2017-06-18T01:35:05.272Z,1018.23
2017-06-18T01:36:06.457Z,1018.27
2017-06-18T01:37:07.789Z,1018.23
2017-06-18T01:38:09.134Z,1018.25
2017-06-18T01:39:10.391Z,1018.25
2017-06-18T01:40:11.644Z,1018.21
2017-06-18T01:41:12.923Z,1018.25
2017-06-18T01:42:14.244Z,1018.25
2017-06-18T01:43:15.583Z,1018.22
2017-06-18T01:44:16.818Z,1018.25
2017-06-18T01:45:18.135Z,1018.25
2017-06-18T01:46:19.395Z,1018.26
2017-06-18T01:47:20.625Z,1018.23
2017-06-18T01:48:21.961Z,1018.24
2017-06-18T01:49:23.268Z,1018.2
2017-06-18T01:50:24.533Z,1018.22
2017-06-18T01:51:25.771Z,1018.23
2017-06-18T01:52:27.012Z,1018.23
2017-06-18T01:53:28.264Z,1018.3
2017-06-18T01:54:29.521Z,1018.26
2017-06-18T01:55:30.746Z,1018.29
2017-06-18T01:56:32.008Z,1018.31
2017-06-18T01:57:33.263Z,1018.29
2017-06-18T01:58:34.627Z,1018.31
2017-06-18T01:59:36.136Z,1018.33
2017-06-18T02:00:37.385Z,1018.33
2017-06-18T02:01:38.632Z,1018.32
2017-06-18T02:02:39.871Z,1018.27
2017-06-18T02:03:41.141Z,1018.32
2017-06-18T02:04:42.357Z,1018.28
2017-06-18T02:05:43.607Z,1018.25
2017-06-18T02:06:44.863Z,1018.24
2017-06-18T02:07:46.104Z,1018.27
2017-06-18T02:08:47.347Z,1018.26
2017-06-18T02:09:48.601Z,1018.24
2017-06-18T02:10:49.847Z,1018.26
2017-06-18T02:11:51.106Z,1018.24
2017-06-18T02:12:52.362Z,1018.23
2017-06-18T02:13:53.623Z,1018.25
2017-06-18T02:14:54.869Z,1018.21
2017-06-18T02:15:56.112Z,1018.19
2017-06-18T02:16:57.366Z,1018.25
2017-06-18T02:17:58.671Z,1018.16
2017-06-18T02:18:59.907Z,1018.24
2017-06-18T02:20:01.266Z,1018.26
2017-06-18T02:21:02.509Z,1018.26
2017-06-18T02:22:03.744Z,1018.23
2017-06-18T02:23:05.011Z,1018.25
2017-06-18T02:24:06.344Z,1018.23
2017-06-18T02:25:07.573Z,1018.22
2017-06-18T02:26:08.824Z,1018.23
2017-06-18T02:27:10.109Z,1018.23
2017-06-18T02:28:11.327Z,1018.2
2017-06-18T02:29:12.564Z,1018.2
2017-06-18T02:30:13.824Z,1018.25
2017-06-18T02:31:15.079Z,1018.25
2017-06-18T02:32:16.320Z,1018.28
2017-06-18T02:33:17.666Z,1018.25
2017-06-18T02:34:18.914Z,1018.31
2017-06-18T02:35:20.237Z,1018.31
2017-06-18T02:36:21.578Z,1018.35
2017-06-18T02:37:22.879Z,1018.34
2017-06-18T02:38:24.119Z,1018.27
2017-06-18T02:39:25.429Z,1018.25
2017-06-18T02:40:26.674Z,1018.26
2017-06-18T02:41:28.028Z,1018.25
2017-06-18T02:42:29.309Z,1018.31
2017-06-18T02:43:30.546Z,1018.27
2017-06-18T02:44:31.833Z,1018.26
2017-06-18T02:45:33.050Z,1018.29
2017-06-18T02:46:34.291Z,1018.28
2017-06-18T02:47:35.876Z,1018.32
2017-06-18T02:48:37.134Z,1018.3
2017-06-18T02:49:38.380Z,1018.33
2017-06-18T02:50:39.621Z,1018.34
2017-06-18T02:51:40.868Z,1018.37
2017-06-18T02:52:42.204Z,1018.34
2017-06-18T02:53:43.442Z,1018.35
2017-06-18T02:54:44.685Z,1018.38
2017-06-18T02:55:45.959Z,1018.35
2017-06-18T02:56:47.197Z,1018.36
2017-06-18T02:57:48.431Z,1018.34
2017-06-18T02:58:49.661Z,1018.34
2017-06-18T02:59:50.914Z,1018.32
2017-06-18T03:00:52.155Z,1018.36
2017-06-18T03:01:53.397Z,1018.39
2017-06-18T03:02:54.635Z,1018.38
2017-06-18T03:03:55.896Z,1018.4
2017-06-18T03:04:57.115Z,1018.34
2017-06-18T03:05:58.427Z,1018.37
2017-06-18T03:06:59.668Z,1018.38
2017-06-18T03:08:00.927Z,1018.41
2017-06-18T03:09:02.170Z,1018.42
2017-06-18T03:10:03.437Z,1018.42
2017-06-18T03:11:04.659Z,1018.41
2017-06-18T03:12:05.905Z,1018.41
2017-06-18T03:13:07.174Z,1018.39
2017-06-18T03:14:08.445Z,1018.44
2017-06-18T03:15:09.785Z,1018.41
2017-06-18T03:16:11.030Z,1018.43
2017-06-18T03:17:12.272Z,1018.42
2017-06-18T03:18:13.511Z,1018.44
2017-06-18T03:19:14.779Z,1018.45
2017-06-18T03:20:16.051Z,1018.43
2017-06-18T03:21:17.298Z,1018.45
2017-06-18T03:22:18.541Z,1018.45
2017-06-18T03:23:19.792Z,1018.45
2017-06-18T03:24:21.037Z,1018.48
2017-06-18T03:25:22.280Z,1018.42
2017-06-18T03:26:23.637Z,1018.44
2017-06-18T03:27:24.938Z,1018.41
2017-06-18T03:28:26.339Z,1018.39
2017-06-18T03:29:27.592Z,1018.36
2017-06-18T03:30:28.834Z,1018.41
2017-06-18T03:31:30.133Z,1018.37
2017-06-18T03:32:31.379Z,1018.38
2017-06-18T03:33:32.590Z,1018.38
2017-06-18T03:34:33.833Z,1018.37
2017-06-18T03:35:35.076Z,1018.39
2017-06-18T03:36:36.332Z,1018.39
2017-06-18T03:37:37.587Z,1018.38
2017-06-18T03:38:38.839Z,1018.38
2017-06-18T03:39:40.117Z,1018.39
2017-06-18T03:40:41.356Z,1018.38
2017-06-18T03:41:42.582Z,1018.33
2017-06-18T03:42:43.821Z,1018.41
2017-06-18T03:43:45.077Z,1018.4
2017-06-18T03:44:46.344Z,1018.41
2017-06-18T03:45:47.585Z,1018.4
2017-06-18T03:46:48.896Z,1018.45
2017-06-18T03:47:50.137Z,1018.45
2017-06-18T03:48:51.357Z,1018.46
2017-06-18T03:49:52.607Z,1018.44
2017-06-18T03:50:53.904Z,1018.46
2017-06-18T03:51:55.134Z,1018.47
2017-06-18T03:52:56.372Z,1018.46
2017-06-18T03:53:57.641Z,1018.43
2017-06-18T03:54:58.884Z,1018.42
2017-06-18T03:56:00.119Z,1018.45
2017-06-18T03:57:01.450Z,1018.46
2017-06-18T03:58:02.589Z,1018.48
2017-06-18T03:59:03.898Z,1018.5
2017-06-18T04:00:05.147Z,1018.49
2017-06-18T04:01:06.386Z,1018.49
2017-06-18T04:02:07.634Z,1018.48
2017-06-18T04:03:08.880Z,1018.49
2017-06-18T04:04:10.123Z,1018.47
2017-06-18T04:05:11.440Z,1018.47
2017-06-18T04:06:12.679Z,1018.48
2017-06-18T04:07:13.930Z,1018.53
2017-06-18T04:08:15.197Z,1018.49
2017-06-18T04:09:16.447Z,1018.5
2017-06-18T04:10:17.705Z,1018.52
2017-06-18T04:11:18.922Z,1018.54
2017-06-18T04:12:20.171Z,1018.47
2017-06-18T04:13:21.553Z,1018.48
2017-06-18T04:14:22.796Z,1018.47
2017-06-18T04:15:24.041Z,1018.46
2017-06-18T04:16:25.304Z,1018.43
2017-06-18T04:17:26.520Z,1018.43
2017-06-18T04:18:27.779Z,1018.48
2017-06-18T04:19:29.162Z,1018.48
2017-06-18T04:20:30.430Z,1018.45
2017-06-18T04:21:31.673Z,1018.45
2017-06-18T04:22:32.906Z,1018.47
2017-06-18T04:23:34.143Z,1018.42
2017-06-18T04:24:35.446Z,1018.42
2017-06-18T04:25:36.691Z,1018.41
2017-06-18T04:26:37.941Z,1018.37
2017-06-18T04:27:39.194Z,1018.36
2017-06-18T04:28:40.450Z,1018.37
2017-06-18T04:29:41.751Z,1018.38
2017-06-18T04:30:43.025Z,1018.36
2017-06-18T04:31:44.281Z,1018.35
2017-06-18T04:32:45.518Z,1018.32
2017-06-18T04:33:46.840Z,1018.3
2017-06-18T04:34:48.024Z,1018.28
2017-06-18T04:35:49.277Z,1018.29
2017-06-18T04:36:50.516Z,1018.26
2017-06-18T04:37:51.763Z,1018.31
2017-06-18T04:38:53.049Z,1018.32
2017-06-18T04:39:54.287Z,1018.32
2017-06-18T04:40:55.532Z,1018.32
2017-06-18T04:41:56.816Z,1018.3
2017-06-18T04:42:58.067Z,1018.3
2017-06-18T04:43:59.309Z,1018.28
2017-06-18T04:45:00.554Z,1018.26
2017-06-18T04:46:01.802Z,1018.28
2017-06-18T04:47:03.046Z,1018.26
2017-06-18T04:48:04.334Z,1018.27
2017-06-18T04:49:05.623Z,1018.27
2017-06-18T04:50:06.975Z,1018.26
2017-06-18T04:51:08.227Z,1018.28
2017-06-18T04:52:09.498Z,1018.28
2017-06-18T04:53:10.708Z,1018.29
2017-06-18T04:54:11.996Z,1018.32
2017-06-18T04:55:13.235Z,1018.32
2017-06-18T04:56:14.466Z,1018.32
2017-06-18T04:57:15.714Z,1018.34
2017-06-18T04:58:16.964Z,1018.34
2017-06-18T04:59:18.233Z,1018.33
2017-06-18T05:00:19.457Z,1018.36
2017-06-18T05:01:20.704Z,1018.3
2017-06-18T05:02:22.080Z,1018.36
2017-06-18T05:03:23.325Z,1018.38
2017-06-18T05:04:24.578Z,1018.37
2017-06-18T05:05:25.827Z,1018.34
2017-06-18T05:06:27.069Z,1018.36
2017-06-18T05:07:28.441Z,1018.32
2017-06-18T05:08:29.690Z,1018.35
2017-06-18T05:09:30.952Z,1018.36
2017-06-18T05:10:32.231Z,1018.36
2017-06-18T05:11:33.458Z,1018.42
2017-06-18T05:12:34.800Z,1018.43
2017-06-18T05:13:36.069Z,1018.4
2017-06-18T05:14:37.318Z,1018.43
2017-06-18T05:15:38.577Z,1018.4
2017-06-18T05:16:39.810Z,1018.35
2017-06-18T05:17:41.057Z,1018.4
2017-06-18T05:18:42.321Z,1018.4
2017-06-18T05:19:43.565Z,1018.4
2017-06-18T05:20:44.855Z,1018.41
2017-06-18T05:21:46.109Z,1018.42
2017-06-18T05:22:47.397Z,1018.44
2017-06-18T05:23:48.639Z,1018.42
2017-06-18T05:24:49.909Z,1018.41
2017-06-18T05:25:51.120Z,1018.42
2017-06-18T05:26:52.370Z,1018.41
2017-06-18T05:27:53.610Z,1018.37
2017-06-18T05:28:54.893Z,1018.42
2017-06-18T05:29:56.119Z,1018.42
2017-06-18T05:30:57.367Z,1018.45
2017-06-18T05:31:58.627Z,1018.48
2017-06-18T05:32:59.947Z,1018.5
2017-06-18T05:34:01.257Z,1018.51
2017-06-18T05:35:02.490Z,1018.52
2017-06-18T05:36:03.743Z,1018.52
2017-06-18T05:37:05.001Z,1018.58
2017-06-18T05:38:06.358Z,1018.63
2017-06-18T05:39:07.741Z,1018.7
2017-06-18T05:40:09.008Z,1018.78
2017-06-18T05:41:10.249Z,1018.82
2017-06-18T05:42:11.498Z,1018.84
2017-06-18T05:43:12.735Z,1018.84
2017-06-18T05:44:14.021Z,1018.86
2017-06-18T05:45:15.273Z,1018.86
2017-06-18T05:46:16.522Z,1018.76
2017-06-18T05:47:17.814Z,1018.87
2017-06-18T05:48:19.088Z,1018.88
2017-06-18T05:49:20.327Z,1018.86
2017-06-18T05:50:21.648Z,1018.87
2017-06-18T05:51:22.958Z,1018.85
2017-06-18T05:52:24.219Z,1018.83
2017-06-18T05:53:25.533Z,1018.86
2017-06-18T05:54:26.766Z,1018.84
2017-06-18T05:55:28.011Z,1018.85
2017-06-18T05:56:29.276Z,1018.92
2017-06-18T05:57:30.604Z,1018.94
2017-06-18T05:58:31.835Z,1018.94
2017-06-18T05:59:33.091Z,1018.99
2017-06-18T06:00:34.340Z,1018.99
2017-06-18T06:01:35.588Z,1018.94
2017-06-18T06:02:36.847Z,1018.98
2017-06-18T06:03:38.107Z,1018.99
2017-06-18T06:04:39.383Z,1018.99
2017-06-18T06:05:40.635Z,1019.03
2017-06-18T06:06:41.893Z,1019.02
2017-06-18T06:07:43.150Z,1019.07
2017-06-18T06:08:44.406Z,1019.08
2017-06-18T06:09:45.673Z,1019.08
2017-06-18T06:10:46.980Z,1019.06
2017-06-18T06:11:48.246Z,1019.1
2017-06-18T06:12:49.504Z,1018.89
2017-06-18T06:13:50.778Z,1018.76
2017-06-18T06:14:52.135Z,1019.17
2017-06-18T06:15:53.527Z,1019.21
2017-06-18T06:16:54.788Z,1019.22
2017-06-18T06:17:56.032Z,1019.3
2017-06-18T06:18:57.287Z,1019.3
2017-06-18T06:19:58.574Z,1019.34
2017-06-18T06:20:59.966Z,1019.31
2017-06-18T06:22:01.248Z,1019.32
2017-06-18T06:23:02.483Z,1019.35
2017-06-18T06:24:03.727Z,1019.35
2017-06-18T06:25:04.981Z,1019.41
2017-06-18T06:26:06.371Z,1019.34
2017-06-18T06:27:07.767Z,1019.36
2017-06-18T06:28:09.014Z,1019.4
2017-06-18T06:29:10.256Z,1019.44
2017-06-18T06:30:11.503Z,1019.45
2017-06-18T06:31:12.809Z,1019.41
2017-06-18T06:32:14.080Z,1019.45
2017-06-18T06:33:15.337Z,1019.5
2017-06-18T06:34:16.592Z,1019.52
2017-06-18T06:35:17.859Z,1019.56
2017-06-18T06:36:19.113Z,1019.49
2017-06-18T06:37:20.417Z,1019.23
2017-06-18T06:38:21.725Z,1019.52
2017-06-18T06:39:22.946Z,1019.57
2017-06-18T06:40:24.186Z,1019.59
2017-06-18T06:41:25.573Z,1019.56
2017-06-18T06:42:26.810Z,1019.61
2017-06-18T06:43:28.183Z,1019.67
2017-06-18T06:44:29.498Z,1019.65
2017-06-18T06:45:30.721Z,1019.69
2017-06-18T06:46:31.991Z,1019.64
2017-06-18T06:47:33.244Z,1019.69
2017-06-18T06:48:34.508Z,1019.72
2017-06-18T06:49:35.770Z,1019.76
2017-06-18T06:50:37.013Z,1019.8
2017-06-18T06:51:38.373Z,1019.7
2017-06-18T06:52:39.649Z,1019.16
2017-06-18T06:53:40.912Z,1019.75
2017-06-18T06:54:42.167Z,1019.85
2017-06-18T06:55:43.418Z,1019.83
2017-06-18T06:56:44.674Z,1019.84
2017-06-18T06:57:45.934Z,1019.91
2017-06-18T06:58:47.218Z,1019.83
2017-06-18T06:59:48.461Z,1019.84
2017-06-18T07:00:49.726Z,1019.8
2017-06-18T07:01:50.999Z,1019.83
2017-06-18T07:02:52.259Z,1019.85
2017-06-18T07:03:53.492Z,1019.86
2017-06-18T07:04:54.738Z,1019.92
2017-06-18T07:05:55.996Z,1019.93
2017-06-18T07:06:57.274Z,1019.84
2017-06-18T07:07:58.546Z,1019.85
2017-06-18T07:08:59.867Z,1019.86
2017-06-18T07:10:01.172Z,1019.74
2017-06-18T07:11:02.413Z,1019.55
2017-06-18T07:12:03.709Z,1019.65
2017-06-18T07:13:04.954Z,1019.53
2017-06-18T07:14:06.240Z,1019.76
2017-06-18T07:15:07.597Z,1019.82
2017-06-18T07:16:08.856Z,1019.9
2017-06-18T07:17:10.127Z,1019.96
2017-06-18T07:18:11.398Z,1019.93
2017-06-18T07:19:12.670Z,1019.87
2017-06-18T07:20:13.914Z,1019.94
2017-06-18T07:21:15.186Z,1020.22
2017-06-18T07:22:16.423Z,1020.54
2017-06-18T07:23:17.684Z,1020.85
2017-06-18T07:24:18.946Z,1020.86
2017-06-18T07:25:20.260Z,1020.79
2017-06-18T07:26:21.510Z,1020.75
2017-06-18T07:27:22.769Z,1020.67
2017-06-18T07:28:24.074Z,1020.67
2017-06-18T07:29:25.442Z,1020.72
2017-06-18T07:30:26.689Z,1020.79
2017-06-18T07:31:27.943Z,1020.8
2017-06-18T07:32:29.203Z,1020.83
2017-06-18T07:33:30.473Z,1020.82
2017-06-18T07:34:31.825Z,1020.87
2017-06-18T07:35:33.120Z,1020.89
2017-06-18T07:36:34.395Z,1020.86
2017-06-18T07:37:35.684Z,1020.94
2017-06-18T07:38:36.917Z,1020.89
2017-06-18T07:39:38.265Z,1020.85
2017-06-18T07:40:39.506Z,1020.83
2017-06-18T07:41:40.785Z,1020.79
2017-06-18T07:42:42.021Z,1020.7
2017-06-18T07:43:43.351Z,1020.58
2017-06-18T07:44:44.628Z,1020.61
2017-06-18T07:45:45.984Z,1020.61
2017-06-18T07:46:47.321Z,1020.82
2017-06-18T07:47:48.596Z,1020.87
2017-06-18T07:48:49.837Z,1020.85
2017-06-18T07:49:51.098Z,1020.8
2017-06-18T07:50:52.369Z,1020.8
2017-06-18T07:51:53.782Z,1020.86
2017-06-18T07:52:55.032Z,1020.83
2017-06-18T07:53:56.320Z,1020.77
2017-06-18T07:54:57.611Z,1020.76
2017-06-18T07:55:58.895Z,1020.73
2017-06-18T07:57:00.139Z,1020.74
2017-06-18T07:58:01.398Z,1020.7
2017-06-18T07:59:02.659Z,1020.8
2017-06-18T08:00:03.916Z,1020.71
2017-06-18T08:01:05.191Z,1020.77
2017-06-18T08:02:06.444Z,1020.78
2017-06-18T08:03:07.716Z,1020.69
2017-06-18T08:04:08.992Z,1020.61
2017-06-18T08:05:10.375Z,1020.6
2017-06-18T08:06:11.613Z,1020.65
2017-06-18T08:07:12.890Z,1020.63
2017-06-18T08:08:14.183Z,1020.57
2017-06-18T08:09:15.470Z,1020.44
2017-06-18T08:10:16.713Z,1020.45
2017-06-18T08:11:17.982Z,1020.46
2017-06-18T08:12:19.237Z,1020.43
2017-06-18T08:13:20.526Z,1020.36
2017-06-18T08:14:21.799Z,1020.36
2017-06-18T08:15:23.060Z,1020.33
2017-06-18T08:16:24.326Z,1020.39
2017-06-18T08:17:25.578Z,1020.36
2017-06-18T08:18:26.851Z,1020.31
2017-06-18T08:19:28.122Z,1020.15
2017-06-18T08:20:29.385Z,1020.08
2017-06-18T08:21:30.697Z,1020.01
2017-06-18T08:22:31.973Z,1020.04
2017-06-18T08:23:33.242Z,1019.99
2017-06-18T08:24:34.500Z,1019.9
2017-06-18T08:25:35.760Z,1019.82
2017-06-18T08:26:37.069Z,1019.8
2017-06-18T08:27:38.356Z,1019.22
2017-06-18T08:28:39.657Z,1019.23
2017-06-18T08:29:40.921Z,1019.22
2017-06-18T08:30:42.188Z,1019.19
2017-06-18T08:31:43.446Z,1019.76
2017-06-18T08:32:44.754Z,1019.75
2017-06-18T08:33:46.144Z,1019.8
2017-06-18T08:34:47.480Z,1019.79
2017-06-18T08:35:48.708Z,1019.85
2017-06-18T08:36:49.962Z,1019.83
2017-06-18T08:37:51.222Z,1019.89
2017-06-18T08:38:52.509Z,1019.92
2017-06-18T08:39:53.827Z,1019.9
2017-06-18T08:40:55.096Z,1019.82
2017-06-18T08:41:56.355Z,1019.79
2017-06-18T08:42:57.626Z,1019.77
2017-06-18T08:43:58.870Z,1019.76
2017-06-18T08:45:00.236Z,1019.72
2017-06-18T08:46:01.520Z,1019.68
2017-06-18T08:47:02.786Z,1019.63
2017-06-18T08:48:04.057Z,1019.64
2017-06-18T08:49:05.321Z,1019.62
2017-06-18T08:50:06.601Z,1019.65
2017-06-18T08:51:07.886Z,1019.65
2017-06-18T08:52:09.197Z,1019.64
2017-06-18T08:53:10.466Z,1019.65
2017-06-18T08:54:11.731Z,1019.63
2017-06-18T08:55:12.994Z,1019.62
2017-06-18T08:56:14.263Z,1019.64
2017-06-18T08:57:15.562Z,1019.69
2017-06-18T08:58:16.811Z,1019.69
2017-06-18T08:59:18.070Z,1019.7
2017-06-18T09:00:19.343Z,1019.69
2017-06-18T09:01:20.576Z,1019.79
2017-06-18T09:02:21.962Z,1019.79
2017-06-18T09:03:23.165Z,1019.75
2017-06-18T09:04:24.445Z,1019.8
2017-06-18T09:05:25.701Z,1019.88
2017-06-18T09:06:26.941Z,1020.03
2017-06-18T09:07:28.235Z,1020.06
2017-06-18T09:08:29.522Z,1020.14
2017-06-18T09:09:30.827Z,1020.22
2017-06-18T09:10:32.163Z,1020.39
2017-06-18T09:11:33.423Z,1020.47
2017-06-18T09:12:34.702Z,1020.51
2017-06-18T09:13:35.952Z,1020.59
2017-06-18T09:14:37.216Z,1020.58
2017-06-18T09:15:38.583Z,1020.57
2017-06-18T09:16:39.973Z,1020.85
2017-06-18T09:17:41.239Z,1020.86
2017-06-18T09:18:42.522Z,1020.78
2017-06-18T09:19:43.935Z,1020.95
2017-06-18T09:20:45.082Z,1021.05
2017-06-18T09:21:46.372Z,1020.98
2017-06-18T09:22:47.657Z,1020.96
2017-06-18T09:23:48.925Z,1021.16
2017-06-18T09:24:50.215Z,1021.11
2017-06-18T09:25:51.501Z,1021.32
2017-06-18T09:26:52.764Z,1021.53
2017-06-18T09:27:54.035Z,1021.46
2017-06-18T09:28:55.310Z,1020.48
2017-06-18T09:29:56.572Z,1018.92
2017-06-18T09:30:57.844Z,1019.42
2017-06-18T09:31:59.132Z,1018.98
2017-06-18T09:33:00.384Z,1019.08
2017-06-18T09:34:01.729Z,1022.14
2017-06-18T09:35:02.992Z,1022.44
2017-06-18T09:36:04.272Z,1022.71
2017-06-18T09:37:05.542Z,1022.65
2017-06-18T09:38:06.824Z,1022.33
2017-06-18T09:39:08.102Z,1022.4
2017-06-18T09:40:09.389Z,1022.59
2017-06-18T09:41:10.640Z,1022.7
2017-06-18T09:42:11.925Z,1022.65
2017-06-18T09:43:13.196Z,1022.97
2017-06-18T09:44:14.481Z,1023.21
2017-06-18T09:45:15.795Z,1023.04
2017-06-18T09:46:17.168Z,1023.58
2017-06-18T09:47:18.348Z,1023.71
2017-06-18T09:48:19.612Z,1023.8
2017-06-18T09:49:20.870Z,1023.56
2017-06-18T09:50:22.172Z,1023.59
2017-06-18T09:51:23.483Z,1023.97
2017-06-18T09:52:24.715Z,1023.51
2017-06-18T09:53:25.992Z,1023.56
2017-06-18T09:54:27.245Z,1023.49
2017-06-18T09:55:28.510Z,1022.78
2017-06-18T09:56:29.890Z,1022.39
2017-06-18T09:57:31.181Z,1018.95
2017-06-18T09:58:32.450Z,1018.75
2017-06-18T09:59:33.730Z,1018.52
2017-06-18T10:00:34.979Z,1018.46
2017-06-18T10:01:36.241Z,1018.48
2017-06-18T10:02:37.525Z,1018.51
2017-06-18T10:03:38.779Z,1018.63
2017-06-18T10:04:40.064Z,1018.59
2017-06-18T10:05:41.385Z,1018.59
2017-06-18T10:06:42.618Z,1018.55
2017-06-18T10:07:43.899Z,1018.68
2017-06-18T10:08:45.154Z,1018.7
2017-06-18T10:09:46.514Z,1018.72
2017-06-18T10:10:47.774Z,1018.81
2017-06-18T10:11:49.033Z,1018.89
2017-06-18T10:12:50.297Z,1018.87
2017-06-18T10:13:51.553Z,1018.78
2017-06-18T10:14:52.839Z,1018.82
2017-06-18T10:15:54.143Z,1018.85
2017-06-18T10:16:55.423Z,1018.81
2017-06-18T10:17:56.702Z,1018.7
2017-06-18T10:18:57.950Z,1018.65
2017-06-18T10:19:59.211Z,1018.63
2017-06-18T10:21:00.494Z,1018.59
2017-06-18T10:22:01.867Z,1018.63
2017-06-18T10:23:03.123Z,1018.56
2017-06-18T10:24:04.377Z,1018.61
2017-06-18T10:25:05.631Z,1018.58
2017-06-18T10:26:06.903Z,1018.61
2017-06-18T10:27:08.230Z,1018.54
2017-06-18T10:28:09.466Z,1018.62
2017-06-18T10:29:10.747Z,1018.61
2017-06-18T10:30:12.017Z,1018.66
2017-06-18T10:31:13.296Z,1018.63
2017-06-18T10:32:14.541Z,1018.58
2017-06-18T10:33:15.839Z,1018.53
2017-06-18T10:34:17.214Z,1018.38
2017-06-18T10:35:18.379Z,1018.47
2017-06-18T10:36:19.636Z,1018.42
2017-06-18T10:37:20.907Z,1018.43
2017-06-18T10:38:22.174Z,1018.43
2017-06-18T10:39:23.456Z,1018.42
2017-06-18T10:40:24.730Z,1018.35
2017-06-18T10:41:25.975Z,1018.33
2017-06-18T10:42:27.236Z,1018.39
2017-06-18T10:43:28.495Z,1018.38
2017-06-18T10:44:29.766Z,1018.36
2017-06-18T10:45:31.030Z,1018.3
2017-06-18T10:46:32.272Z,1018.35
2017-06-18T10:47:33.563Z,1018.32
2017-06-18T10:48:34.820Z,1018.32
2017-06-18T10:49:36.075Z,1018.3
2017-06-18T10:50:37.331Z,1018.26
2017-06-18T10:51:38.589Z,1018.26
2017-06-18T10:52:39.907Z,1018.31
2017-06-18T10:53:41.147Z,1018.25
2017-06-18T10:54:42.396Z,1018.28
2017-06-18T10:55:43.655Z,1018.26
2017-06-18T10:56:44.912Z,1018.27
2017-06-18T10:57:46.187Z,1018.25
2017-06-18T10:58:47.468Z,1018.3
2017-06-18T10:59:48.723Z,1018.27
2017-06-18T11:00:49.998Z,1018.26
2017-06-18T11:01:51.249Z,1018.22
2017-06-18T11:02:52.516Z,1018.23
2017-06-18T11:03:53.884Z,1018.18
2017-06-18T11:04:55.052Z,1018.22
2017-06-18T11:05:56.329Z,1018.21
2017-06-18T11:06:57.621Z,1018.24
2017-06-18T11:07:58.862Z,1018.21
2017-06-18T11:09:00.132Z,1018.2
2017-06-18T11:10:01.374Z,1018.16
2017-06-18T11:11:02.663Z,1018.13
2017-06-18T11:12:03.974Z,1018.13
2017-06-18T11:13:05.224Z,1018.1
2017-06-18T11:14:06.493Z,1018.11
2017-06-18T11:15:07.741Z,1018.09
2017-06-18T11:16:09.063Z,1018.08
2017-06-18T11:17:10.349Z,1018.12
2017-06-18T11:18:11.615Z,1018.05
2017-06-18T11:19:12.861Z,1018.03
2017-06-18T11:20:14.150Z,1018.03
2017-06-18T11:21:15.385Z,1018.05
2017-06-18T11:22:16.635Z,1018.03
2017-06-18T11:23:17.991Z,1018.03
2017-06-18T11:24:19.251Z,1018.06
2017-06-18T11:25:20.507Z,1018.07
2017-06-18T11:26:21.748Z,1018.12
2017-06-18T11:27:23.006Z,1018.13
2017-06-18T11:28:24.284Z,1018.06
2017-06-18T11:29:25.580Z,1018.04
2017-06-18T11:30:26.818Z,1017.95
2017-06-18T11:31:28.074Z,1017.99
2017-06-18T11:32:29.326Z,1017.97
2017-06-18T11:33:30.594Z,1017.94
2017-06-18T11:34:31.876Z,1017.94
2017-06-18T11:35:33.149Z,1017.96
2017-06-18T11:36:34.413Z,1017.98
2017-06-18T11:37:35.647Z,1017.95
2017-06-18T11:38:36.969Z,1017.97
2017-06-18T11:39:38.182Z,1017.98
2017-06-18T11:40:39.464Z,1017.98
2017-06-18T11:41:40.793Z,1017.98
2017-06-18T11:42:42.092Z,1017.99
2017-06-18T11:43:43.357Z,1017.95
2017-06-18T11:44:44.605Z,1017.91
2017-06-18T11:45:45.847Z,1017.95
2017-06-18T11:46:47.126Z,1017.91
2017-06-18T11:47:48.465Z,1017.88
2017-06-18T11:48:49.717Z,1017.93
2017-06-18T11:49:50.963Z,1017.95
2017-06-18T11:50:52.210Z,1017.96
2017-06-18T11:51:53.505Z,1017.98
2017-06-18T11:52:54.719Z,1017.95
2017-06-18T11:53:56.119Z,1017.93
2017-06-18T11:54:57.378Z,1017.91
2017-06-18T11:55:58.629Z,1017.92
2017-06-18T11:56:59.887Z,1017.94
2017-06-18T11:58:01.148Z,1017.95
2017-06-18T11:59:02.424Z,1017.96
2017-06-18T12:00:03.770Z,1017.95
2017-06-18T12:01:04.964Z,1017.92
2017-06-18T12:02:06.220Z,1017.94
2017-06-18T12:03:07.514Z,1017.95
2017-06-18T12:04:08.771Z,1017.9
2017-06-18T12:05:10.040Z,1017.9
2017-06-18T12:06:11.306Z,1017.9
2017-06-18T12:07:12.612Z,1017.87
2017-06-18T12:08:13.880Z,1017.86
2017-06-18T12:09:15.143Z,1017.87
2017-06-18T12:10:16.403Z,1017.87
2017-06-18T12:11:17.667Z,1017.82
2017-06-18T12:12:18.922Z,1017.81
2017-06-18T12:13:20.191Z,1017.78
2017-06-18T12:14:21.452Z,1017.81
2017-06-18T12:15:22.717Z,1017.79
2017-06-18T12:16:23.980Z,1017.79
2017-06-18T12:17:25.235Z,1017.76
2017-06-18T12:18:26.521Z,1017.72
2017-06-18T12:19:27.883Z,1017.73
2017-06-18T12:20:29.134Z,1017.72
2017-06-18T12:21:30.393Z,1017.73
2017-06-18T12:22:31.652Z,1017.71